Time;durP1;ratioP1;P1;durP2;ratioP2;P2;SDS_P1;SDS_P2;PMS_P1;PMS_P2;Temp;Humidity;BMP_temperature;BMP_pressure;BME280_temperature;BME280_humidity;BME280_pressure;Samples;Min_cycle;Max_cycle;Signal;HPM_P1;HPM_P2
2023/08/25 00:00:39;;;;;;;6.55;5.82;;;;;;;21.88;88.26;99266.03;4863096;29;20104;-94
2023/08/25 00:03:05;;;;;;;8.05;6.00;;;;;;;21.89;88.22;99259.75;4862792;29;20036;-96
2023/08/25 00:05:38;;;;;;;7.18;5.80;;;;;;;21.83;87.69;99245.28;4862966;29;20089;-95
2023/08/25 00:08:04;;;;;;;5.85;5.25;;;;;;;21.81;87.61;99241.94;4862801;29;20032;-94
2023/08/25 00:10:30;;;;;;;6.38;5.72;;;;;;;21.88;87.65;99263.38;4862888;29;20090;-94
2023/08/25 00:12:56;;;;;;;5.50;5.00;;;;;;;21.89;87.43;99257.09;4862724;29;20033;-95
2023/08/25 00:15:22;;;;;;;8.43;5.50;;;;;;;21.94;86.91;99252.16;4862891;29;20388;-95
2023/08/25 00:17:50;;;;;;;6.40;5.72;;;;;;;21.94;86.90;99249.50;4893904;29;20025;-95
2023/08/25 00:20:16;;;;;;;6.68;5.55;;;;;;;21.88;86.41;99231.56;4862659;29;20029;-95
2023/08/25 00:22:41;;;;;;;6.90;5.70;;;;;;;21.88;86.69;99220.97;4862691;29;20033;-94
2023/08/25 00:25:08;;;;;;;8.55;6.32;;;;;;;21.98;86.66;99240.25;4862401;29;20401;-94
2023/08/25 00:27:34;;;;;;;6.82;6.05;;;;;;;21.98;86.82;99237.59;4862708;29;20127;-95
2023/08/25 00:30:00;;;;;;;8.98;6.22;;;;;;;21.96;86.83;99229.00;4862489;29;20455;-95
2023/08/25 00:32:26;;;;;;;7.97;5.97;;;;;;;21.98;86.89;99229.66;4862617;29;20168;-95
2023/08/25 00:34:53;;;;;;;7.63;6.15;;;;;;;21.95;87.00;99222.00;4862411;29;20112;-95
2023/08/25 00:37:19;;;;;;;8.38;5.90;;;;;;;21.95;87.24;99214.03;4862492;29;20032;-94
2023/08/25 00:39:45;;;;;;;8.23;6.30;;;;;;;21.93;87.59;99216.03;4862423;29;20094;-95
2023/08/25 00:42:11;;;;;;;7.88;6.55;;;;;;;21.93;87.68;99202.78;4877538;29;20393;-94
2023/08/25 00:44:37;;;;;;;8.85;6.10;;;;;;;21.82;87.96;99187.94;4862290;29;20460;-96
2023/08/25 00:47:05;;;;;;;10.07;6.20;;;;;;;21.84;88.02;99203.69;4861916;29;20144;-95
2023/08/25 00:49:31;;;;;;;6.68;5.90;;;;;;;21.74;88.27;99190.53;4862182;29;20040;-94
2023/08/25 00:51:57;;;;;;;7.60;6.13;;;;;;;21.78;88.57;99205.13;4861783;29;20032;-95
2023/08/25 00:54:27;;;;;;;7.55;6.45;;;;;;;21.72;89.06;99195.16;4861979;29;20509;-95
2023/08/25 00:56:53;;;;;;;7.47;6.45;;;;;;;21.71;89.01;99196.16;4861954;29;20117;-95
2023/08/25 00:59:19;;;;;;;11.10;6.80;;;;;;;21.63;89.28;99190.78;4861606;29;20389;-95
2023/08/25 01:01:45;;;;;;;7.63;6.60;;;;;;;21.67;89.46;99195.63;4861924;29;20033;-95
2023/08/25 01:04:12;;;;;;;9.52;7.05;;;;;;;21.67;89.82;99189.50;4861812;29;20470;-94
2023/08/25 01:06:39;;;;;;;7.30;6.57;;;;;;;21.61;90.07;99184.78;4862369;29;20389;-95
2023/08/25 01:09:06;;;;;;;9.18;6.82;;;;;;;21.65;89.88;99194.09;4861552;29;20338;-95
2023/08/25 01:11:51;;;;;;;9.20;7.35;;;;;;;21.64;90.15;99187.13;4861888;29;20032;-94
2023/08/25 01:14:22;;;;;;;14.95;7.18;;;;;;;21.59;90.41;99192.06;4861726;29;20041;-95
2023/08/25 01:17:26;;;;;;;11.55;8.35;;;;;;;21.40;90.44;99159.44;4861876;29;20082;-94
2023/08/25 01:20:00;;;;;;;9.00;6.90;;;;;;;21.45;91.01;99182.00;4839133;29;20174;-95
2023/08/25 01:22:44;;;;;;;9.88;7.32;;;;;;;21.46;91.25;99184.50;4839021;29;20025;-94
2023/08/25 01:25:32;;;;;;;11.40;7.55;;;;;;;21.46;91.52;99188.97;4838835;29;20025;-95
2023/08/25 01:28:05;;;;;;;8.15;6.90;;;;;;;21.47;91.73;99190.63;4820535;29;20427;-95
2023/08/25 01:30:34;;;;;;;8.80;7.30;;;;;;;21.46;91.70;99188.97;4805551;29;20046;-95
2023/08/25 01:33:03;;;;;;;8.75;7.35;;;;;;;21.46;91.74;99191.63;4805345;29;20053;-94
2023/08/25 01:35:40;;;;;;;7.68;6.72;;;;;;;21.46;91.87;99181.88;4805610;29;20030;-95
2023/08/25 01:38:30;;;;;;;9.32;7.75;;;;;;;21.39;91.78;99178.97;4805360;29;20043;-94
2023/08/25 01:41:24;;;;;;;8.57;7.47;;;;;;;21.36;92.50;99170.50;4805388;29;20026;-94
2023/08/25 01:43:52;;;;;;;8.40;6.97;;;;;;;21.36;92.11;99157.25;4805561;29;20050;-93
2023/08/25 01:46:20;;;;;;;8.98;7.93;;;;;;;21.37;92.49;99161.59;4805401;29;20388;-94
2023/08/25 01:48:49;;;;;;;9.25;8.05;;;;;;;21.37;92.80;99170.38;4805608;29;20263;-95
2023/08/25 01:51:16;;;;;;;11.73;8.20;;;;;;;21.39;92.47;99165.72;4805167;29;20063;-94
2023/08/25 01:53:48;;;;;;;10.20;7.72;;;;;;;21.38;92.74;99171.19;4805283;29;20038;-94
2023/08/25 01:56:14;;;;;;;8.70;7.80;;;;;;;21.31;92.98;99157.69;4815072;29;20128;-95
2023/08/25 01:58:40;;;;;;;11.38;8.77;;;;;;;21.34;93.22;99165.34;4823507;29;20121;-94
2023/08/25 02:01:06;;;;;;;9.40;7.70;;;;;;;21.33;93.34;99168.19;4823220;29;20103;-95
2023/08/25 02:03:32;;;;;;;9.90;7.70;;;;;;;21.34;93.46;99157.41;4823519;29;20038;-96
2023/08/25 02:05:59;;;;;;;9.15;7.68;;;;;;;21.23;93.68;99131.13;4851092;29;20397;-96
2023/08/25 02:08:25;;;;;;;9.48;7.88;;;;;;;21.24;93.70;99132.81;4861300;29;20099;-95
2023/08/25 02:10:52;;;;;;;9.32;7.55;;;;;;;21.25;93.98;99131.81;4861687;29;20033;-95
2023/08/25 02:13:18;;;;;;;10.45;8.35;;;;;;;21.22;94.41;99126.81;4864836;29;20389;-96
2023/08/25 02:15:50;;;;;;;8.43;7.72;;;;;;;21.15;94.54;99123.09;4864996;29;20493;-95
2023/08/25 02:18:16;;;;;;;10.98;8.20;;;;;;;21.15;94.85;99133.69;4864793;29;20380;-95
2023/08/25 02:20:42;;;;;;;8.27;7.25;;;;;;;21.10;95.17;99122.72;4864901;29;20112;-95
2023/08/25 02:23:08;;;;;;;12.52;8.02;;;;;;;21.04;95.41;99120.69;4864596;29;20036;-94
2023/08/25 02:25:34;;;;;;;9.07;7.65;;;;;;;21.06;95.33;99124.84;4860422;29;20502;-95
2023/08/25 02:28:00;;;;;;;10.23;8.05;;;;;;;21.10;94.95;99117.44;4844768;29;20069;-95
2023/08/25 02:30:26;;;;;;;9.27;7.65;;;;;;;21.14;95.31;99124.09;4844933;29;20534;-95
2023/08/25 02:32:52;;;;;;;8.80;7.90;;;;;;;21.13;95.28;99117.97;4844703;29;20394;-95
2023/08/25 02:35:18;;;;;;;9.10;7.75;;;;;;;21.14;95.37;99124.91;4844697;29;20029;-94
2023/08/25 02:37:59;;;;;;;8.40;6.72;;;;;;;21.11;95.46;99114.66;4844988;29;20456;-94
2023/08/25 02:40:26;;;;;;;9.13;8.02;;;;;;;21.08;95.67;99114.94;4860298;29;20025;-94
2023/08/25 02:42:53;;;;;;;8.32;7.53;;;;;;;21.08;95.74;99103.53;4844612;29;20445;-94
2023/08/25 02:45:19;;;;;;;9.70;7.85;;;;;;;21.00;95.69;99093.69;4844569;29;20077;-94
2023/08/25 02:47:44;;;;;;;9.77;8.70;;;;;;;21.00;95.86;99095.50;4844624;29;20050;-95
2023/08/25 02:50:10;;;;;;;9.55;8.55;;;;;;;21.09;96.06;99102.53;4844374;29;20405;-95
2023/08/25 02:52:36;;;;;;;9.38;7.75;;;;;;;21.08;96.18;99103.53;4844755;29;20033;-95
2023/08/25 02:55:02;;;;;;;8.23;7.35;;;;;;;21.11;95.99;99113.78;4844352;29;20486;-95
2023/08/25 02:57:27;;;;;;;8.00;7.05;;;;;;;21.18;95.80;99130.75;4844514;29;20452;-96
2023/08/25 02:59:54;;;;;;;7.70;6.75;;;;;;;21.20;95.53;99131.44;4844534;29;20026;-95
2023/08/25 03:02:19;;;;;;;7.15;6.43;;;;;;;21.21;95.62;99117.22;4848918;29;20044;-94
2023/08/25 03:04:45;;;;;;;8.82;7.13;;;;;;;21.09;95.75;99100.72;4864127;29;20021;-94
2023/08/25 03:07:11;;;;;;;8.05;7.20;;;;;;;21.24;96.01;99124.00;4863855;29;20029;-95
2023/08/25 03:09:37;;;;;;;9.77;7.30;;;;;;;21.20;96.35;99117.38;4864611;29;20032;-96
2023/08/25 03:12:03;;;;;;;8.52;7.57;;;;;;;21.17;97.44;99115.84;4863778;29;20107;-94
2023/08/25 03:14:28;;;;;;;8.48;7.22;;;;;;;21.25;97.57;99123.03;4863802;29;20032;-94
2023/08/25 03:16:54;;;;;;;8.23;7.43;;;;;;;21.28;97.81;99123.56;4863878;29;20116;-94
2023/08/25 03:19:20;;;;;;;8.95;8.05;;;;;;;21.27;98.10;99126.34;4863648;29;20369;-94
2023/08/25 03:21:45;;;;;;;10.80;7.72;;;;;;;21.27;98.63;99127.19;4863415;29;20025;-94
2023/08/25 03:24:11;;;;;;;12.20;9.32;;;;;;;21.16;99.44;99100.94;4863431;29;20397;-95
2023/08/25 03:26:37;;;;;;;10.10;9.05;;;;;;;21.17;100.00;99118.50;4863707;29;20024;-94
2023/08/25 03:29:03;;;;;;;10.32;8.48;;;;;;;21.05;100.00;99095.88;4863426;29;20048;-94
2023/08/25 03:31:29;;;;;;;10.32;8.73;;;;;;;21.02;100.00;99112.06;4863665;29;20229;-95
2023/08/25 03:33:55;;;;;;;9.95;9.05;;;;;;;20.88;100.00;99111.59;4863677;29;20057;-94
2023/08/25 03:36:20;;;;;;;9.52;8.57;;;;;;;20.86;100.00;99089.75;4863358;29;20025;-94
2023/08/25 03:38:46;;;;;;;11.63;10.40;;;;;;;20.83;100.00;99095.34;4863530;29;20374;-95
2023/08/25 03:41:12;;;;;;;11.15;9.07;;;;;;;20.74;100.00;99095.41;4863262;29;20021;-94
2023/08/25 03:43:37;;;;;;;12.15;9.02;;;;;;;20.67;100.00;99090.72;4863451;29;20029;-94
2023/08/25 03:46:23;;;;;;;10.10;9.05;;;;;;;20.55;100.00;99072.56;4863238;29;20075;-95
2023/08/25 03:48:49;;;;;;;11.57;10.30;;;;;;;20.61;100.00;99077.25;4843592;29;20507;-94
2023/08/25 03:51:15;;;;;;;11.02;9.93;;;;;;;20.58;100.00;99069.63;4843358;29;20033;-94
2023/08/25 03:53:41;;;;;;;10.25;9.20;;;;;;;20.49;100.00;99046.72;4843691;29;20048;-94
2023/08/25 03:56:07;;;;;;;10.75;9.73;;;;;;;20.54;100.00;99055.03;4843365;29;20124;-94
2023/08/25 03:58:32;;;;;;;9.60;8.70;;;;;;;20.55;100.00;99052.22;4843646;29;20041;-94
2023/08/25 04:00:59;;;;;;;10.68;9.60;;;;;;;20.44;100.00;99028.59;4843574;29;20505;-95
2023/08/25 04:03:25;;;;;;;10.48;9.50;;;;;;;20.51;100.00;99039.44;4843198;29;20074;-95
2023/08/25 04:05:50;;;;;;;11.70;9.65;;;;;;;20.52;100.00;99036.66;4843457;29;20037;-95
2023/08/25 04:08:16;;;;;;;12.45;10.23;;;;;;;20.47;100.00;99033.56;4843091;29;20120;-94
2023/08/25 04:10:43;;;;;;;10.13;9.23;;;;;;;20.38;100.00;99027.38;4843335;29;20026;-94
2023/08/25 04:13:09;;;;;;;11.93;10.65;;;;;;;20.23;100.00;99005.09;4843131;29;20129;-95
2023/08/25 04:15:37;;;;;;;11.55;10.07;;;;;;;20.31;100.00;99025.47;4843262;29;20402;-94
2023/08/25 04:18:04;;;;;;;11.07;8.90;;;;;;;20.33;100.00;99024.34;4843216;29;20037;-95
2023/08/25 04:20:30;;;;;;;9.90;8.98;;;;;;;20.35;100.00;99026.84;4858847;29;20507;-95
2023/08/25 04:22:56;;;;;;;10.25;9.35;;;;;;;20.39;100.00;99030.84;4862883;29;20405;-95
2023/08/25 04:25:23;;;;;;;10.55;9.57;;;;;;;20.47;100.00;99030.09;4878256;29;20029;-95
2023/08/25 04:27:48;;;;;;;10.23;9.23;;;;;;;20.48;100.00;99030.00;4862663;29;20025;-94
2023/08/25 04:30:14;;;;;;;12.57;9.77;;;;;;;20.46;100.00;99029.28;4862427;29;20025;-94
2023/08/25 04:32:40;;;;;;;10.25;9.02;;;;;;;20.56;100.00;99063.63;4862572;29;20388;-95
2023/08/25 04:35:07;;;;;;;10.35;9.27;;;;;;;20.62;100.00;99073.63;4861777;29;20033;-94
2023/08/25 04:37:33;;;;;;;9.50;8.60;;;;;;;20.67;100.00;99064.25;4862516;29;20031;-94
2023/08/25 04:40:00;;;;;;;9.88;8.95;;;;;;;20.71;100.00;99058.66;4862495;29;20024;-94
2023/08/25 04:42:26;;;;;;;10.02;8.90;;;;;;;20.71;100.00;99059.50;4862161;29;20497;-94
2023/08/25 04:44:52;;;;;;;10.50;9.50;;;;;;;20.76;100.00;99051.94;4862657;29;20438;-94
2023/08/25 04:47:17;;;;;;;10.95;9.52;;;;;;;20.75;100.00;99036.22;4861882;29;20135;-95
2023/08/25 04:49:44;;;;;;;11.85;10.85;;;;;;;20.64;100.00;99027.50;4862247;29;20025;-94
2023/08/25 04:52:09;;;;;;;11.15;9.88;;;;;;;20.63;100.00;99035.59;4862048;29;20033;-94
2023/08/25 04:54:35;;;;;;;10.55;9.55;;;;;;;20.69;100.00;99045.59;4862241;29;20036;-93
2023/08/25 04:57:01;;;;;;;10.77;9.65;;;;;;;20.69;100.00;99058.81;4861983;29;20037;-94
2023/08/25 04:59:27;;;;;;;10.32;9.43;;;;;;;20.71;100.00;99040.97;4861897;29;20017;-93
2023/08/25 05:01:52;;;;;;;12.00;10.32;;;;;;;20.64;100.00;99024.84;4861939;29;20397;-94
2023/08/25 05:04:18;;;;;;;11.40;9.68;;;;;;;20.66;100.00;99046.72;4861928;29;20033;-94
2023/08/25 05:06:44;;;;;;;12.43;11.25;;;;;;;20.65;100.00;99041.59;4861995;29;20021;-93
2023/08/25 05:09:09;;;;;;;10.77;9.43;;;;;;;20.55;100.00;99020.47;4861881;29;20056;-94
2023/08/25 05:11:35;;;;;;;12.90;11.43;;;;;;;20.54;100.00;99026.75;4861834;29;20069;-94
2023/08/25 05:14:01;;;;;;;12.13;10.93;;;;;;;20.47;100.00;99019.53;4877267;29;20073;-93
2023/08/25 05:16:26;;;;;;;11.65;10.55;;;;;;;20.60;100.00;99036.72;4861504;29;20452;-94
2023/08/25 05:18:52;;;;;;;11.00;10.00;;;;;;;20.59;100.00;99021.00;4861990;29;20025;-94
2023/08/25 05:21:18;;;;;;;13.18;11.13;;;;;;;20.65;100.00;99028.34;4861598;29;20382;-94
2023/08/25 05:23:48;;;;;;;11.85;10.65;;;;;;;20.60;100.00;99017.38;4857415;29;20081;-94
2023/08/25 05:26:14;;;;;;;11.55;10.45;;;;;;;20.59;100.00;99002.47;4841780;29;20041;-93
2023/08/25 05:28:40;;;;;;;11.18;9.85;;;;;;;20.65;100.00;99005.38;4842047;29;20037;-94
2023/08/25 05:31:05;;;;;;;10.90;9.85;;;;;;;20.75;100.00;99015.88;4842043;29;20394;-94
2023/08/25 05:33:31;;;;;;;12.18;10.10;;;;;;;20.83;100.00;99000.06;4841820;29;20037;-93
2023/08/25 05:35:56;;;;;;;12.65;9.93;;;;;;;20.93;100.00;99003.44;4838900;29;20053;-94
2023/08/25 05:38:22;;;;;;;10.48;9.38;;;;;;;21.05;100.00;98987.31;4823677;29;20038;-93
2023/08/25 05:40:48;;;;;;;10.50;9.30;;;;;;;21.12;100.00;98983.91;4823755;29;20129;-94
2023/08/25 05:43:13;;;;;;;12.75;10.38;;;;;;;21.21;100.00;98987.44;4838781;29;20038;-93
2023/08/25 05:45:39;;;;;;;10.35;9.35;;;;;;;21.36;100.00;99012.41;4838726;29;20046;-95
2023/08/25 05:48:05;;;;;;;8.95;8.05;;;;;;;21.49;100.00;99009.34;4820793;29;20046;-95
2023/08/25 05:50:31;;;;;;;10.27;8.70;;;;;;;21.59;100.00;99001.28;4835371;29;20087;-94
2023/08/25 05:52:56;;;;;;;10.88;9.68;;;;;;;21.68;100.00;99011.75;4835739;29;20121;-94
2023/08/25 05:55:22;;;;;;;10.10;9.00;;;;;;;21.74;100.00;99012.09;4820476;29;20125;-95
2023/08/25 05:57:49;;;;;;;10.77;9.68;;;;;;;21.75;100.00;99017.25;4820978;29;20052;-95
2023/08/25 06:00:58;;;;;;;10.15;8.63;;;;;;;21.88;100.00;99012.34;4826052;29;20522;-96
2023/08/25 06:03:51;;;;;;;9.02;8.13;;;;;;;22.23;100.00;99022.94;4820337;29;20095;-95
2023/08/25 06:07:03;;;;;;;9.98;8.90;;;;;;;22.50;100.00;99012.09;4799723;29;20162;-96
2023/08/25 06:10:57;;;;;;;10.40;9.00;;;;;;;22.59;100.00;98983.72;4801400;29;20129;-95
2023/08/25 06:14:47;;;;;;;11.00;9.40;;;;;;;22.80;100.00;99004.47;4713087;30;20049;-96
2023/08/25 06:18:12;;;;;;;10.68;9.55;;;;;;;22.48;100.00;98970.78;4678241;30;20042;-96
2023/08/25 06:21:50;;;;;;;11.05;9.90;;;;;;;23.15;100.00;99008.66;4611067;31;20131;-95
2023/08/25 06:25:33;;;;;;;8.90;8.05;;;;;;;23.55;100.00;98998.94;4561250;31;20484;-95
2023/08/25 06:28:48;;;;;;;9.32;8.40;;;;;;;24.24;100.00;99012.50;4544894;31;20054;-96
2023/08/25 06:35:43;;;;;;;8.68;7.88;;;;;;;25.01;97.30;99015.16;4488896;31;20229;-96
2023/08/25 06:42:38;;;;;;;10.70;7.97;;;;;;;25.76;95.44;99022.28;4497667;31;20081;-95
2023/08/25 07:01:10;;;;;;;9.45;7.47;;;;;;;28.60;85.23;99012.31;4448223;32;20146;-96
2023/08/25 07:16:04;;;;;;;8.13;7.43;;;;;;;31.09;76.76;99005.84;4453026;32;20062;-95
2023/08/25 07:23:10;;;;;;;7.88;7.10;;;;;;;32.13;72.14;99007.69;4468285;32;20101;-96
2023/08/25 07:26:38;;;;;;;12.35;6.93;;;;;;;32.53;71.26;99010.72;4523862;31;20047;-95
2023/08/25 07:30:10;;;;;;;7.82;6.90;;;;;;;33.11;70.44;99003.00;4483098;32;20108;-96
2023/08/25 07:33:38;;;;;;;12.40;7.05;;;;;;;34.28;66.82;99013.66;4499262;31;20055;-96
2023/08/25 07:36:46;;;;;;;8.10;6.68;;;;;;;35.33;65.36;99006.03;4440369;32;20651;-92
2023/08/25 07:57:51;;;;;;;7.53;6.20;;;;;;;40.11;57.11;99001.53;4390016;32;20107;-94
2023/08/25 08:04:42;;;;;;;7.40;6.30;;;;;;;40.08;55.78;99004.81;4435994;32;20087;-93
2023/08/25 08:07:53;;;;;;;8.90;6.43;;;;;;;39.32;56.04;98988.72;4443348;32;20056;-93
2023/08/25 08:10:39;;;;;;;6.72;6.13;;;;;;;38.22;57.35;99000.00;4375344;32;20412;-92
2023/08/25 08:13:27;;;;;;;7.00;6.40;;;;;;;37.12;59.26;98989.91;4407799;32;20045;-94
2023/08/25 08:16:53;;;;;;;7.55;6.75;;;;;;;35.75;61.51;98982.00;4456187;32;20079;-93
2023/08/25 08:20:00;;;;;;;9.60;7.15;;;;;;;34.90;63.49;98993.97;4441278;32;20525;-93
2023/08/25 08:22:27;;;;;;;7.45;6.53;;;;;;;34.24;64.70;99002.50;4437479;32;20065;-92
2023/08/25 08:25:55;;;;;;;7.95;6.88;;;;;;;33.57;66.24;98988.69;4409586;32;20531;-94
2023/08/25 08:29:39;;;;;;;12.00;7.65;;;;;;;33.13;68.09;98995.50;4512333;31;20425;-94
2023/08/25 08:33:23;;;;;;;9.20;7.22;;;;;;;32.40;70.71;98973.16;4538238;31;20046;-93
2023/08/25 08:36:37;;;;;;;8.93;6.97;;;;;;;32.20;71.16;98994.16;4512093;31;20458;-93
2023/08/25 08:40:05;;;;;;;8.45;6.57;;;;;;;31.94;72.00;98988.06;4505044;31;20457;-93
2023/08/25 08:43:38;;;;;;;8.63;7.15;;;;;;;31.80;70.78;99005.38;4483166;31;20051;-93
2023/08/25 08:47:00;;;;;;;6.68;6.07;;;;;;;31.73;71.78;98991.16;4458385;32;20052;-92
2023/08/25 08:50:30;;;;;;;6.50;5.70;;;;;;;31.54;70.88;98966.13;4453873;32;20046;-94
2023/08/25 08:53:59;;;;;;;6.75;6.05;;;;;;;31.64;71.22;98987.94;4462438;32;20090;-95
2023/08/25 08:57:14;;;;;;;6.35;5.53;;;;;;;31.59;69.05;98989.66;4423593;32;20067;-96
2023/08/25 09:00:42;;;;;;;7.35;5.40;;;;;;;31.47;69.73;98978.81;4465191;32;20047;-96
2023/08/25 09:03:53;;;;;;;6.82;5.60;;;;;;;31.45;70.54;98989.00;4479183;32;20494;-95
2023/08/25 09:07:26;;;;;;;6.22;5.63;;;;;;;31.43;72.19;98999.97;4421761;32;20053;-96
2023/08/25 09:10:10;;;;;;;;;;;;;;;31.42;72.43;99001.00;4406041;32;20544;-93
2023/08/25 09:12:36;;;;;;;7.25;5.70;;;;;;;31.40;70.99;98992.34;4365227;32;19926;-92
2023/08/25 09:15:01;;;;;;;6.38;5.65;;;;;;;31.36;71.13;98998.41;4402087;32;20057;-92
2023/08/25 09:17:27;;;;;;;12.40;5.68;;;;;;;31.24;69.48;98991.03;4394266;32;20140;-92
2023/08/25 09:20:04;;;;;;;8.40;5.45;;;;;;;31.19;70.65;98993.56;4406188;32;20050;-93
2023/08/25 09:22:30;;;;;;;8.52;5.47;;;;;;;31.21;71.04;98996.84;4401992;32;20594;-93
2023/08/25 09:24:58;;;;;;;7.88;5.63;;;;;;;31.27;71.02;99000.53;4415992;32;20064;-92
2023/08/25 09:27:26;;;;;;;6.63;5.57;;;;;;;31.24;72.17;98990.19;4431188;32;20064;-93
2023/08/25 09:30:06;;;;;;;8.23;5.97;;;;;;;31.25;72.36;98989.16;4457522;32;20138;-93
2023/08/25 09:32:32;;;;;;;6.57;5.97;;;;;;;31.26;71.20;98996.97;4463882;32;20059;-92
2023/08/25 09:35:11;;;;;;;5.95;5.35;;;;;;;31.33;72.09;99001.53;4508165;31;21680;-92
2023/08/25 09:37:43;;;;;;;5.63;4.90;;;;;;;31.27;70.11;98995.16;4513718;31;20054;-93
2023/08/25 09:40:14;;;;;;;7.78;4.40;;;;;;;31.20;70.54;98991.69;4521150;31;20053;-92
2023/08/25 09:42:39;;;;;;;5.93;4.78;;;;;;;31.21;69.84;99004.91;4530617;31;20527;-92
2023/08/25 09:45:05;;;;;;;6.18;4.78;;;;;;;31.21;70.41;99012.16;4574724;31;20049;-92
2023/08/25 09:47:31;;;;;;;5.85;4.47;;;;;;;31.19;70.48;99011.56;4590960;31;20043;-92
2023/08/25 09:49:57;;;;;;;5.03;4.55;;;;;;;31.23;70.65;99018.16;4649470;30;20072;-92
2023/08/25 09:52:26;;;;;;;4.55;4.07;;;;;;;31.26;70.10;99009.63;4717076;30;20561;-92
2023/08/25 09:54:53;;;;;;;4.45;4.05;;;;;;;31.24;70.76;98995.56;4733766;30;20044;-92
2023/08/25 09:57:19;;;;;;;6.07;4.30;;;;;;;31.23;70.49;98994.75;4780344;29;20118;-92
2023/08/25 09:59:45;;;;;;;4.72;4.15;;;;;;;31.28;69.78;99007.53;4787294;29;20395;-93
2023/08/25 10:02:12;;;;;;;4.88;4.35;;;;;;;31.27;70.31;98995.16;4787316;29;20039;-93
2023/08/25 10:04:39;;;;;;;7.03;4.38;;;;;;;31.37;70.07;99006.25;4787301;29;20158;-93
2023/08/25 10:07:06;;;;;;;7.47;4.50;;;;;;;31.27;69.54;98984.38;4787329;29;20042;-93
2023/08/25 10:09:33;;;;;;;4.63;4.22;;;;;;;31.37;69.19;98995.47;4786877;29;20043;-93
2023/08/25 10:12:00;;;;;;;5.00;3.97;;;;;;;31.39;70.45;99000.63;4787307;29;20102;-93
2023/08/25 10:14:30;;;;;;;7.63;4.00;;;;;;;31.36;69.86;98990.31;4787342;29;20091;-93
2023/08/25 10:17:00;;;;;;;6.88;4.65;;;;;;;31.34;70.58;98984.34;4787225;29;20380;-93
2023/08/25 10:19:31;;;;;;;5.60;4.20;;;;;;;31.43;70.47;99004.53;4802030;29;20148;-94
2023/08/25 10:21:58;;;;;;;5.45;4.20;;;;;;;31.35;69.71;98992.19;4787091;29;20038;-93
2023/08/25 10:24:28;;;;;;;5.45;4.25;;;;;;;31.25;69.09;98997.22;4770558;30;20043;-93
2023/08/25 10:26:54;;;;;;;6.70;4.40;;;;;;;31.06;69.64;98989.13;4784199;30;20527;-92
2023/08/25 10:29:21;;;;;;;5.15;4.45;;;;;;;31.03;70.71;99002.19;4769253;30;20035;-91
2023/08/25 10:31:48;;;;;;;5.50;4.15;;;;;;;30.93;70.22;98996.44;4784312;29;20046;-91
2023/08/25 10:34:34;;;;;;;7.65;4.72;;;;;;;30.98;72.33;99002.00;4772688;30;20039;-91
2023/08/25 10:37:23;;;;;;;6.95;4.53;;;;;;;31.03;72.05;99002.19;4772709;30;20059;-90
2023/08/25 10:39:59;;;;;;;5.00;4.53;;;;;;;31.14;71.82;99001.47;4823320;29;20516;-90
2023/08/25 10:42:33;;;;;;;5.82;4.50;;;;;;;31.19;71.98;98993.56;4823551;29;20407;-90
2023/08/25 10:45:03;;;;;;;6.40;4.85;;;;;;;31.28;72.21;99004.84;4808261;29;20074;-90
2023/08/25 10:47:28;;;;;;;5.95;4.53;;;;;;;31.33;72.14;98998.84;4823439;29;20035;-90
2023/08/25 10:49:55;;;;;;;5.35;4.85;;;;;;;31.31;70.98;98991.00;4822942;29;20031;-89
2023/08/25 10:52:22;;;;;;;5.60;4.47;;;;;;;31.42;70.25;98997.50;4808424;29;20087;-90
2023/08/25 10:54:52;;;;;;;6.43;5.15;;;;;;;31.47;70.31;98993.09;4807838;29;20137;-89
2023/08/25 10:57:26;;;;;;;5.80;4.70;;;;;;;31.57;70.33;99006.06;4823220;29;20263;-89
2023/08/25 10:59:56;;;;;;;4.95;4.22;;;;;;;31.62;70.82;99003.50;4823063;29;20041;-89
2023/08/25 11:02:38;;;;;;;7.57;4.63;;;;;;;31.61;69.45;99001.06;4823121;29;20062;-89
2023/08/25 11:05:31;;;;;;;5.50;4.63;;;;;;;31.66;69.95;99012.78;4823247;29;20238;-89
2023/08/25 11:08:02;;;;;;;5.13;4.50;;;;;;;31.51;69.58;98993.47;4823177;29;20031;-89
2023/08/25 11:10:33;;;;;;;5.25;4.70;;;;;;;31.48;69.21;98988.56;4823089;29;20038;-89
2023/08/25 11:13:00;;;;;;;7.80;4.47;;;;;;;31.47;70.24;99001.16;4823151;29;20049;-89
2023/08/25 11:15:26;;;;;;;5.38;4.88;;;;;;;31.37;69.95;98990.09;4823249;29;20031;-89
2023/08/25 11:17:52;;;;;;;7.55;4.78;;;;;;;31.37;69.04;99000.84;4842972;29;20494;-89
2023/08/25 11:20:17;;;;;;;6.63;4.70;;;;;;;31.30;70.75;98995.53;4862447;29;20065;-88
2023/08/25 11:22:56;;;;;;;5.85;4.65;;;;;;;31.23;71.01;98986.69;4845189;29;20030;-88
2023/08/25 11:25:21;;;;;;;6.07;4.68;;;;;;;31.33;71.89;98994.28;4861984;29;20041;-88
2023/08/25 11:27:50;;;;;;;5.60;4.72;;;;;;;31.35;71.12;98994.03;4845109;29;20037;-88
2023/08/25 11:30:16;;;;;;;6.38;4.72;;;;;;;31.31;70.67;98996.38;4845294;29;20030;-88
2023/08/25 11:32:44;;;;;;;4.60;4.20;;;;;;;31.35;70.62;98996.72;4843123;29;20040;-88
2023/08/25 11:35:12;;;;;;;5.18;4.68;;;;;;;31.27;71.62;98990.59;4862015;29;20037;-88
2023/08/25 11:37:40;;;;;;;7.82;4.75;;;;;;;31.32;70.85;98991.81;4845312;29;20033;-88
2023/08/25 11:40:09;;;;;;;7.13;4.68;;;;;;;31.17;69.67;98957.97;4862037;29;20497;-88
2023/08/25 11:42:35;;;;;;;6.95;4.63;;;;;;;31.23;71.12;98980.50;4844951;29;20034;-88
2023/08/25 11:45:08;;;;;;;6.13;4.65;;;;;;;31.28;70.73;98986.03;4862132;29;20057;-88
2023/08/25 11:47:34;;;;;;;6.40;4.93;;;;;;;31.07;70.59;98944.22;4847234;29;20613;-88
2023/08/25 11:50:04;;;;;;;5.07;4.65;;;;;;;31.33;71.46;98996.16;4871331;29;20084;-88
2023/08/25 11:52:32;;;;;;;5.65;4.30;;;;;;;30.77;70.66;98904.56;4862903;29;20033;-87
2023/08/25 11:54:58;;;;;;;6.07;4.55;;;;;;;31.03;71.53;98954.59;4861901;29;20069;-88
2023/08/25 11:57:37;;;;;;;6.82;4.22;;;;;;;31.35;70.56;99005.66;4862600;29;20560;-88
2023/08/25 12:00:05;;;;;;;6.40;4.57;;;;;;;31.01;69.30;98951.31;4863282;29;20032;-87
2023/08/25 12:02:32;;;;;;;6.13;4.18;;;;;;;30.98;69.44;98953.59;4861684;29;20033;-87
2023/08/25 12:05:02;;;;;;;6.10;4.47;;;;;;;31.24;70.04;99006.34;4861912;29;20025;-88
2023/08/25 12:07:29;;;;;;;6.93;3.70;;;;;;;30.85;70.86;98935.72;4861604;29;20103;-87
2023/08/25 12:09:58;;;;;;;7.50;4.53;;;;;;;31.17;70.58;98987.56;4879554;29;20035;-87
2023/08/25 12:12:24;;;;;;;5.13;4.18;;;;;;;31.22;70.32;98984.19;4861892;29;20029;-88
2023/08/25 12:14:51;;;;;;;4.82;4.40;;;;;;;31.39;69.56;98998.75;4877267;29;20065;-88
2023/08/25 12:17:29;;;;;;;6.60;4.70;;;;;;;31.40;70.04;98997.72;4877788;29;20029;-87
2023/08/25 12:19:58;;;;;;;4.63;4.20;;;;;;;31.38;70.81;98988.22;4878557;29;20353;-88
2023/08/25 12:22:24;;;;;;;6.82;4.15;;;;;;;31.40;69.88;98989.66;4862175;29;20033;-87
2023/08/25 12:24:53;;;;;;;4.45;4.05;;;;;;;31.41;69.80;98983.22;4878763;29;20048;-87
2023/08/25 12:27:18;;;;;;;4.68;4.28;;;;;;;31.45;70.14;98983.59;4862184;29;20146;-87
2023/08/25 12:29:44;;;;;;;7.53;4.47;;;;;;;31.47;69.70;98993.09;4878991;29;20092;-88
2023/08/25 12:32:10;;;;;;;4.78;4.13;;;;;;;31.49;70.30;98992.88;4862263;29;20029;-87
2023/08/25 12:34:36;;;;;;;5.65;3.78;;;;;;;31.44;70.10;98988.16;4862242;29;20044;-87
2023/08/25 12:37:08;;;;;;;5.18;4.25;;;;;;;31.30;70.23;98976.69;4879130;29;20104;-87
2023/08/25 12:39:33;;;;;;;4.88;4.38;;;;;;;31.39;69.49;98990.69;4878899;29;20025;-87
2023/08/25 12:41:59;;;;;;;4.72;4.22;;;;;;;31.38;70.51;98974.78;4878670;29;20105;-87
2023/08/25 12:44:24;;;;;;;4.50;4.10;;;;;;;31.39;67.86;98977.22;4878809;29;20115;-87
2023/08/25 12:46:50;;;;;;;6.57;3.92;;;;;;;31.43;69.06;98983.81;4862231;29;20426;-87
2023/08/25 12:49:19;;;;;;;5.38;3.95;;;;;;;31.41;70.58;98969.78;4878891;29;20037;-87
2023/08/25 12:51:45;;;;;;;8.15;4.63;;;;;;;31.24;69.36;98949.84;4862080;29;20035;-87
2023/08/25 12:54:15;;;;;;;5.47;4.20;;;;;;;31.47;69.49;98993.09;4878422;29;20033;-88
2023/08/25 12:56:41;;;;;;;7.60;4.03;;;;;;;31.46;69.44;98991.44;4861054;29;20057;-88
2023/08/25 12:59:10;;;;;;;4.60;3.80;;;;;;;31.44;70.36;98990.88;4878669;29;20088;-87
2023/08/25 13:01:35;;;;;;;4.95;3.80;;;;;;;31.49;68.87;98995.56;4843517;29;20037;-88
2023/08/25 13:04:01;;;;;;;6.10;4.38;;;;;;;31.45;68.14;98991.69;4861415;29;20177;-88
2023/08/25 13:06:26;;;;;;;5.22;4.28;;;;;;;31.49;68.86;99000.97;4878536;29;20328;-88